Flight Track Log - Related Links

Times and Time Zones

All times are in EDT time to prevent confusion due to time zone crossing. See the GJS3657 flight status page for this flight to view local times or setup timezone preferences in your user account.

Time Position Orientation Groundspeed Altitude Reporting Facility
EDT Latitude Longitude Course Direction KTS MPH feet Rate Location/Type
Wed 10:55:16 PM 42.0167 -87.9167 26° Northeast 174 200 2,300  Level Chicago TRACON
Wed 10:56:16 PM 42.0667 -87.8833 26° Northeast 201 231 3,900 1,857 Climbing Chicago TRACON
Wed 10:57:22 PM 42.1000 -87.8000 62° Northeast 273 314 6,200 2,240 Climbing Chicago TRACON
Wed 10:58:46 PM 42.1131 -87.6686 82° East 280 322 9,500 2,301 Climbing Chicago Center
Wed 10:59:48 PM 42.1269 -87.5586 80° East 295 339 11,800 2,000 Climbing Chicago Center
Wed 11:00:49 PM 42.1453 -87.4072 81° East 336 387 13,600 1,623 Climbing Chicago Center
Wed 11:01:50 PM 42.1594 -87.2658 82° East 375 432 15,100 1,475 Climbing Chicago Center
Wed 11:02:51 PM 42.1553 -87.1136 92° East 403 464 16,600 1,426 Climbing Chicago Center
Wed 11:03:52 PM 42.1522 -86.9567 91° East 418 481 18,000 1,415 Climbing Chicago Center
Wed 11:04:54 PM 42.1494 -86.7975 91° East 426 490 19,500 1,463 Climbing Chicago Center
Wed 11:05:55 PM 42.1464 -86.6383 91° East 435 501 21,000 1,475 Climbing Chicago Center
Wed 11:06:56 PM 42.1433 -86.4750 91° East 438 504 22,500 1,475 Climbing Chicago Center
Wed 11:07:57 PM 42.1411 -86.3092 91° East 441 507 24,000 1,415 Climbing Chicago Center
Wed 11:08:59 PM 42.1364 -86.1442 92° East 441 507 25,400 1,317 Climbing Chicago Center
Wed 11:10:00 PM 42.1328 -85.9619 91° East 447 514 26,700 1,131 Climbing Chicago Center
Wed 11:11:01 PM 42.1289 -85.7958 92° East 447 514 27,700 984 Climbing Chicago Center
Wed 11:12:02 PM 42.1244 -85.6231 92° East 460 529 28,700 984 Climbing Chicago Center
Wed 11:13:03 PM 42.1200 -85.4508 92° East 464 534 29,700 1,082 Climbing Chicago Center
Wed 11:14:04 PM 42.1142 -85.2433 92° East 465 535 30,900 1,073 Climbing Chicago Center
Wed 11:15:06 PM 42.1103 -85.0672 92° East 471 542 31,900 976 Climbing Chicago Center
Wed 11:16:07 PM 42.1044 -84.8956 93° East 466 536 32,900 984 Climbing Chicago Center
Wed 11:17:08 PM 42.0994 -84.7236 92° East 463 533 33,900 1,033 Climbing Chicago Center
Wed 11:18:09 PM 42.0933 -84.5522 93° East 462 532 35,000 885 Climbing Chicago Center
Wed 11:19:10 PM 42.0883 -84.3806 92° East 461 531 35,700 706 Climbing Chicago Center
Wed 11:20:08 PM 42.1025 -84.2189 83° East 463 533 36,400 661 Climbing Cleveland Center
Wed 11:21:08 PM 42.1264 -84.0494 79° East 458 527 37,000 300 Climbing Cleveland Center
Wed 11:22:08 PM 42.1483 -83.8769 80° East 463 533 37,000  Level Cleveland Center
Wed 11:23:08 PM 42.1719 -83.6986 80° East 463 533 37,000  Level Cleveland Center
Wed 11:24:08 PM 42.1983 -83.4925 80° East 494 568 37,000  Level Cleveland Center
Wed 11:25:08 PM 42.2189 -83.3281 80° East 501 577 37,000  Level Cleveland Center
Wed 11:26:08 PM 42.2425 -83.1244 81° East 506 582 37,000  Level Cleveland Center
Wed 11:27:08 PM 42.2650 -82.9400 81° East 501 577 37,000  Level Cleveland Center
Wed 11:28:08 PM 42.2875 -82.7528 81° East 501 577 37,000  Level Cleveland Center
Wed 11:29:08 PM 42.3075 -82.5681 82° East 501 577 37,000  Level Cleveland Center
Wed 11:30:08 PM 42.3294 -82.3806 81° East 501 577 37,000  Level Cleveland Center
Wed 11:31:08 PM 42.3508 -82.1931 81° East 501 577 37,000  Level Cleveland Center
Wed 11:32:08 PM 42.3742 -82.0081 80° East 501 577 37,000  Level Cleveland Center
Wed 11:33:08 PM 42.3931 -81.8175 82° East 508 585 37,000  Level Cleveland Center
Wed 11:34:08 PM 42.4139 -81.6264 82° East 502 578 37,000  Level Cleveland Center
Wed 11:35:08 PM 42.4361 -81.4356 81° East 502 578 37,000  Level Cleveland Center
Wed 11:36:08 PM 42.4542 -81.2500 82° East 502 578 37,000  Level Cleveland Center
Wed 11:37:08 PM 42.4736 -81.0786 81° East 502 578 37,000  Level Cleveland Center
Wed 11:38:08 PM 42.4931 -80.8872 82° East 502 578 37,000  Level Cleveland Center
Wed 11:39:08 PM 42.5103 -80.6986 83° East 502 578 37,000  Level Cleveland Center
Wed 11:40:08 PM 42.5269 -80.5100 83° East 502 578 37,000  Level Cleveland Center
Wed 11:41:08 PM 42.5475 -80.3183 82° East 508 585 37,000  Level Cleveland Center
Wed 11:42:08 PM 42.5656 -80.1294 83° East 503 579 37,000  Level Cleveland Center
Wed 11:43:08 PM 42.5836 -79.9403 83° East 503 579 37,000  Level Cleveland Center
Wed 11:44:08 PM 42.6031 -79.7483 82° East 503 579 37,000  Level Cleveland Center
Wed 11:45:08 PM 42.6183 -79.5561 84° East 503 579 37,000  Level Cleveland Center
Wed 11:46:08 PM 42.6372 -79.3667 82° East 503 579 37,000  Level Cleveland Center
Wed 11:47:08 PM 42.6517 -79.1717 84° East 508 585 37,000  Level Cleveland Center
Wed 11:48:08 PM 42.6681 -78.9794 83° East 508 585 37,000  Level Cleveland Center
Wed 11:49:08 PM 42.6839 -78.7842 84° East 513 590 37,000  Level Cleveland Center
Wed 11:50:08 PM 42.6975 -78.5944 84° East 513 590 37,000  Level Cleveland Center
Wed 11:51:08 PM 42.7169 -78.4017 82° East 513 590 37,000  Level Cleveland Center
Wed 11:52:08 PM 42.7483 -78.2081 77° East 518 596 37,000  Level Cleveland Center
Wed 11:53:08 PM 42.7758 -78.0206 79° East 512 589 37,000  Level Cleveland Center
Wed 11:54:08 PM 42.8047 -77.8325 78° East 512 589 37,000  Level Cleveland Center
Wed 11:55:08 PM 42.8333 -77.6358 79° East 512 589 37,000  Level Cleveland Center
Wed 11:57:33 PM 42.8903 -77.2133 79° East 521 600 37,000  Level Boston Center
Wed 11:58:33 PM 42.9247 -76.9806 78° East 516 594 37,000  Level Boston Center
Wed 11:59:33 PM 42.9453 -76.8258 80° East 521 600 37,000  Level Boston Center
Thu 12:00:33 AM 42.9819 -76.5758 79° East 521 600 37,000  Level Boston Center
Thu 12:01:45 AM 43.0075 -76.3814 80° East 521 600 37,000  Level Boston Center
Thu 12:02:45 AM 43.0361 -76.1503 80° East 516 594 37,000  Level Boston Center
Thu 12:03:45 AM 43.0608 -75.9614 80° East 516 594 37,000  Level Boston Center
Thu 12:04:45 AM 43.0856 -75.7664 80° East 516 594 37,000  Level Boston Center
Thu 12:05:45 AM 43.1097 -75.5744 80° East 516 594 37,000  Level Boston Center
Thu 12:06:45 AM 43.1336 -75.3792 80° East 516 594 37,000 -50 Level Boston Center
Thu 12:07:45 AM 43.1553 -75.1811 81° East 522 601 36,900 -50 Descending Boston Center
Thu 12:08:45 AM 43.1806 -74.9858 80° East 522 601 36,900 50 Level Boston Center
Thu 12:09:45 AM 43.2058 -74.7872 80° East 522 601 37,000 45 Climbing Boston Center
Thu 12:10:57 AM 43.2283 -74.5914 81° East 522 601 37,000  Level Boston Center
Thu 12:11:57 AM 43.2531 -74.3700 81° East 527 606 37,000  Level Boston Center
Thu 12:12:57 AM 43.2750 -74.1739 81° East 527 606 37,000 -400 Level Boston Center
Thu 12:13:57 AM 43.2967 -73.9747 81° East 527 606 36,200 -950 Descending Boston Center
Thu 12:14:57 AM 43.3200 -73.7756 81° East 527 606 35,100 -1,350 Descending Boston Center
Thu 12:15:57 AM 43.3411 -73.5678 82° East 515 593 33,500 -1,650 Descending Boston Center
Thu 12:16:57 AM 43.3636 -73.3767 81° East 510 587 31,800 -1,650 Descending Boston Center
Thu 12:17:57 AM 43.3836 -73.2000 81° East 510 587 30,200 -1,700 Descending Boston Center
Thu 12:18:57 AM 43.4036 -73.0117 82° East 510 587 28,400 -1,800 Descending Boston Center
Thu 12:19:57 AM 43.4231 -72.8203 82° East 504 580 26,600 -1,850 Descending Boston Center
Thu 12:20:57 AM 43.4422 -72.6344 82° East 499 574 24,700 -1,750 Descending Boston Center
Thu 12:21:57 AM 43.4569 -72.4544 84° East 489 563 23,100 -1,550 Descending Boston Center
Thu 12:22:57 AM 43.4756 -72.2797 82° East 474 545 21,600 -1,500 Descending Boston Center
Thu 12:23:57 AM 43.4942 -72.1081 81° East 459 528 20,100 -1,500 Descending Boston Center
Thu 12:24:57 AM 43.5164 -71.9447 79° East 443 510 18,600 -1,850 Descending Boston Center
Thu 12:25:57 AM 43.5406 -71.7756 79° East 420 483 16,400 -2,150 Descending Boston Center
Thu 12:26:57 AM 43.5583 -71.6381 80° East 406 467 14,300 -2,250 Descending Boston Center
Thu 12:27:57 AM 43.5822 -71.4769 78° East 400 460 11,900 -1,650 Descending Boston Center
Thu 12:28:57 AM 43.5997 -71.3478 79° East 381 438 11,000 -450 Descending Boston Center
Thu 12:29:57 AM 43.6172 -71.2156 80° East 358 412 11,000 -900 Level Boston Center
Thu 12:30:57 AM 43.6344 -71.0919 79° East 317 365 9,200 -1,700 Descending Boston Center
Thu 12:31:57 AM 43.6458 -70.9911 81° East 293 337 7,600 -1,750 Descending Boston Center
Thu 12:32:57 AM 43.6608 -70.8761 80° East 283 326 5,700 -1,700 Descending Boston Center
Thu 12:33:57 AM 43.6761 -70.7694 79° East 278 320 4,200 -750 Descending Boston Center
Thu 12:34:57 AM 43.6706 -70.6747 95° East 262 302 4,200 -150 Level Boston Center
Thu 12:35:57 AM 43.6628 -70.5831 97° East 242 278 3,900 -750 Descending Boston Center
Thu 12:36:57 AM 43.6575 -70.5058 95° East 227 261 2,700 -1,100 Descending Boston Center
Thu 12:37:57 AM 43.6542 -70.4372 94° East 178 205 1,700 -850 Descending Boston Center
Thu 12:38:57 AM 43.6511 -70.3883 95° East 139 160 1,000 -750 Descending Boston Center
Thu 12:39:57 AM 43.6481 -70.3283 94° East 139 160 200 -400 Descending Boston Center
Thu 12:40:57 AM 43.6408 -70.2769 101° East 139 160 200  Level Boston Center
Thu 12:42:00 AM 43.6333 -70.3000 270° West  Level FlightAware Approximate
Thu 12:49:00 AM 43.6456 -70.3086 270° West  Level Estimated
Thu 12:50:00 AM 43.6456 -70.3086 270° West  Level Estimated
Thu 12:51:00 AM 43.6456 -70.3086 270° West  Level Estimated
Thu 12:52:00 AM 43.6456 -70.3086 270° West  Level Estimated
Thu 12:53:00 AM 43.6456 -70.3086 270° West  Level Estimated
Thu 12:54:00 AM 43.6456 -70.3086 270° West  Level Estimated
Thu 12:55:00 AM 43.6456 -70.3086 270° West  Level Estimated
Thu 12:56:00 AM 43.6456 -70.3086 270° West  Level Estimated

Login

Don't have an account? Register now (free) for customized features, flight alerts, and more!